Time;durP1;ratioP1;P1;durP2;ratioP2;P2;SDS_P1;SDS_P2;PMS_P1;PMS_P2;Temp;Humidity;BMP_temperature;BMP_pressure;BME280_temperature;BME280_humidity;BME280_pressure;Samples;Min_cycle;Max_cycle;Signal;HPM_P1;HPM_P2
2021/09/14 00:01:43;;;;;;;;;;;;;;;17.85;66.22;101261.70;1758651;81;20291;-85
2021/09/14 00:04:15;;;;;;;;;;;;;;;17.86;66.28;101270.41;1770499;80;20194;-78
2021/09/14 00:06:46;;;;;;;;;;;;;;;17.91;66.28;101267.55;1751490;81;20229;-79
2021/09/14 00:09:18;;;;;;;;;;;;;;;17.93;66.22;101273.12;1747831;82;20217;-74
2021/09/14 00:11:52;;;;;;;;;;;;;;;17.97;66.15;101268.59;1747646;82;20236;-81
2021/09/14 00:14:24;;;;;;;;;;;;;;;17.99;65.96;101266.91;1747646;82;20225;-85
2021/09/14 00:16:57;;;;;;;;;;;;;;;18.01;65.81;101264.63;1747884;82;20352;-80
2021/09/14 00:19:28;;;;;;;;;;;;;;;18.02;65.72;101267.70;1748014;82;20261;-86
2021/09/14 00:22:01;;;;;;;;;;;;;;;17.99;65.69;101260.70;1747714;82;20213;-80
2021/09/14 00:24:32;;;;;;;;;;;;;;;17.96;65.68;101260.45;1747922;82;20570;-84
2021/09/14 00:27:04;;;;;;;;;;;;;;;17.89;65.72;101274.86;1747984;82;20226;-83
2021/09/14 00:29:36;;;;;;;;;;;;;;;17.86;65.79;101270.41;1748035;82;20533;-80
2021/09/14 00:32:08;;;;;;;;;;;;;;;17.78;65.90;101275.23;1747725;81;20184;-74
2021/09/14 00:34:40;;;;;;;;;;;;;;;17.71;66.09;101271.92;1748044;82;20255;-75
2021/09/14 00:37:12;;;;;;;;;;;;;;;17.65;66.26;101269.73;1747754;82;20237;-84
2021/09/14 00:39:44;;;;;;;;;;;;;;;17.58;66.39;101268.38;1747848;82;20179;-85
2021/09/14 00:42:15;;;;;;;;;;;;;;;17.52;66.50;101270.95;1748026;81;20261;-83
2021/09/14 00:44:47;;;;;;;;;;;;;;;17.48;66.61;101264.23;1748254;81;20178;-76
2021/09/14 00:47:19;;;;;;;;;;;;;;;17.43;66.63;101268.51;1748142;82;20237;-85
2021/09/14 00:49:51;;;;;;;;;;;;;;;17.38;66.70;101266.55;1751818;81;20252;-79
2021/09/14 00:52:27;;;;;;;;;;;;;;;17.34;66.92;101266.84;1750480;81;20248;-84
2021/09/14 00:54:59;;;;;;;;;;;;;;;17.34;67.03;101270.20;1753085;81;20779;-78
2021/09/14 00:57:31;;;;;;;;;;;;;;;17.38;67.22;101262.92;1733060;82;20182;-82
2021/09/14 01:00:15;;;;;;;;;;;;;;;;;;;;;
2021/09/14 01:02:55;;;;;;;;;;;;;;;17.48;67.01;101264.23;1651791;85;20192;-82
2021/09/14 01:05:27;;;;;;;;;;;;;;;17.53;66.76;101269.27;1668523;85;20301;-80
2021/09/14 01:07:58;;;;;;;;;;;;;;;17.54;66.67;101267.27;1685228;85;20258;-81
2021/09/14 01:10:30;;;;;;;;;;;;;;;17.53;66.55;101269.81;1685100;85;20230;-78
2021/09/14 01:13:08;;;;;;;;;;;;;;;17.49;66.62;101265.35;1684833;85;20198;-80
2021/09/14 01:15:41;;;;;;;;;;;;;;;17.46;66.68;101274.92;1687037;85;20198;-80
2021/09/14 01:18:13;;;;;;;;;;;;;;;17.43;66.78;101274.13;1686459;85;20246;-82
2021/09/14 01:20:45;;;;;;;;;;;;;;;17.38;66.82;101274.16;1684113;85;20210;-84
2021/09/14 01:23:17;;;;;;;;;;;;;;;17.33;66.92;101276.41;1683885;84;20190;-84
2021/09/14 01:25:49;;;;;;;;;;;;;;;17.29;66.95;101278.66;1683804;85;20199;-81
2021/09/14 01:28:21;;;;;;;;;;;;;;;17.22;67.06;101274.78;1683913;85;20538;-86
2021/09/14 01:30:53;;;;;;;;;;;;;;;17.17;67.17;101277.61;1683767;85;20551;-83
2021/09/14 01:33:25;;;;;;;;;;;;;;;17.13;67.45;101277.91;1683890;85;20226;-82
2021/09/14 01:35:58;;;;;;;;;;;;;;;17.09;67.54;101279.64;1683707;85;20190;-84
2021/09/14 01:38:30;;;;;;;;;;;;;;;17.14;67.68;101281.56;1686993;85;20258;-84
2021/09/14 01:41:03;;;;;;;;;;;;;;;17.20;67.65;101279.83;1683891;83;20230;-84
2021/09/14 01:43:36;;;;;;;;;;;;;;;17.27;67.53;101276.71;1666570;85;20262;-80
2021/09/14 01:46:08;;;;;;;;;;;;;;;17.30;67.42;101283.13;1683800;85;20187;-79
2021/09/14 01:48:40;;;;;;;;;;;;;;;17.29;67.20;101280.05;1684031;85;20192;-76
2021/09/14 01:51:11;;;;;;;;;;;;;;;17.28;67.14;101281.19;1683751;85;20186;-76
2021/09/14 01:53:43;;;;;;;;;;;;;;;17.26;67.10;101285.69;1661488;85;20222;-77
2021/09/14 01:56:15;;;;;;;;;;;;;;;17.21;67.07;101284.89;1686541;84;20194;-77
2021/09/14 01:58:48;;;;;;;;;;;;;;;17.14;67.11;101282.39;1686143;85;20278;-76
2021/09/14 02:01:38;;;;;;;;;;;;;;;17.05;67.27;101284.69;1690832;83;20303;-83
2021/09/14 02:04:19;;;;;;;;;;;;;;;17.00;67.41;101283.34;1672980;83;20552;-83
2021/09/14 02:23:59;;;;;;;;;;;;;;;16.92;67.92;101289.53;1685507;85;20183;-81
2021/09/14 03:00:25;;;;;;;;;;;;;;;16.71;69.26;101299.99;1666738;84;20283;-75
2021/09/14 03:02:57;;;;;;;;;;;;;;;16.73;69.23;101301.97;1682518;84;20258;-81
2021/09/14 03:05:30;;;;;;;;;;;;;;;16.72;69.24;101305.05;1692393;83;20548;-80
2021/09/14 03:08:04;;;;;;;;;;;;;;;16.67;69.28;101314.87;1659636;86;20242;-82
2021/09/14 03:10:35;;;;;;;;;;;;;;;16.64;69.40;101317.69;1670379;86;20251;-78
2021/09/14 03:13:08;;;;;;;;;;;;;;;16.59;69.51;101312.09;1655951;87;20623;-78
2021/09/14 03:15:41;;;;;;;;;;;;;;;16.56;69.58;101311.82;1656614;87;20287;-83
2021/09/14 04:57:12;;;;;;;;;;;;;;;18.51;70.79;101390.70;1657535;83;20303;-73
2021/09/14 04:59:43;;;;;;;;;;;;;;;18.63;70.60;101392.55;1653956;85;20249;-70
2021/09/14 05:02:15;;;;;;;;;;;;;;;18.73;70.56;101386.83;1653374;86;20243;-74
2021/09/14 05:04:48;;;;;;;;;;;;;;;18.84;70.46;101393.45;1653712;86;20286;-73
2021/09/14 05:07:21;;;;;;;;;;;;;;;19.05;70.40;101384.20;1657325;85;20349;-72
2021/09/14 05:09:53;;;;;;;;;;;;;;;19.39;70.03;101389.17;1658275;86;20178;-70
2021/09/14 05:12:25;;;;;;;;;;;;;;;19.75;69.02;101386.13;1658016;86;20198;-71
2021/09/14 05:14:59;;;;;;;;;;;;;;;20.14;68.22;101386.66;1652711;86;20231;-71
2021/09/14 05:17:33;;;;;;;;;;;;;;;20.54;66.69;101390.22;1653118;86;20219;-73
2021/09/14 05:20:07;;;;;;;;;;;;;;;20.89;65.47;101386.73;1656576;86;20206;-75
2021/09/14 05:22:38;;;;;;;;;;;;;;;21.22;63.57;101386.93;1652286;86;20539;-76
2021/09/14 05:25:10;;;;;;;;;;;;;;;21.47;62.70;101387.80;1657681;86;20194;-80
2021/09/14 05:27:41;;;;;;;;;;;;;;;21.73;62.35;101385.54;1672292;85;20235;-76
2021/09/14 05:30:13;;;;;;;;;;;;;;;21.98;61.30;101387.77;1657487;85;20222;-80
2021/09/14 05:32:45;;;;;;;;;;;;;;;22.23;60.29;101383.47;1656558;87;20187;-75
2021/09/14 05:35:18;;;;;;;;;;;;;;;22.44;59.33;101388.92;1656466;87;20195;-76
2021/09/14 05:37:49;;;;;;;;;;;;;;;22.66;58.21;101387.46;1651893;86;20608;-79
2021/09/14 05:40:22;;;;;;;;;;;;;;;22.90;57.96;101395.02;1631274;87;20193;-80
2021/09/14 05:42:54;;;;;;;;;;;;;;;23.14;57.24;101395.47;1605647;87;20217;-76
2021/09/14 05:45:26;;;;;;;;;;;;;;;23.27;56.30;101391.72;1631329;87;20268;-78
2021/09/14 05:48:00;;;;;;;;;;;;;;;23.46;55.69;101390.89;1631247;87;20192;-77
2021/09/14 05:50:33;;;;;;;;;;;;;;;23.60;55.63;101393.82;1627536;87;20273;-80
2021/09/14 05:53:05;;;;;;;;;;;;;;;23.79;54.47;101398.64;1631165;88;20288;-79
2021/09/14 05:55:39;;;;;;;;;;;;;;;23.93;53.90;101399.92;1631130;88;20324;-78
2021/09/14 05:58:15;;;;;;;;;;;;;;;24.03;53.81;101399.61;1630335;87;20276;-80
2021/09/14 06:00:46;;;;;;;;;;;;;;;24.14;52.70;101388.18;1640243;82;20197;-79
2021/09/14 06:03:21;;;;;;;;;;;;;;;24.19;52.45;101395.12;1684762;85;20268;-80
2021/09/14 06:05:53;;;;;;;;;;;;;;;24.25;52.48;101393.78;1684984;85;20361;-76
2021/09/14 06:08:31;;;;;;;;;;;;;;;24.36;52.43;101396.50;1684757;85;20287;-76
2021/09/14 06:10:59;;;;;;;;;;;;;;;24.48;52.29;101392.39;1684783;85;20616;-79
2021/09/14 06:13:31;;;;;;;;;;;;;;;24.66;52.55;101392.65;1684975;85;20259;-79
2021/09/14 06:16:04;;;;;;;;;;;;;;;24.85;51.45;101395.94;1684969;85;20280;-80
2021/09/14 06:18:38;;;;;;;;;;;;;;;24.99;51.10;101390.30;1684856;85;21125;-75
2021/09/14 06:21:13;;;;;;;;;;;;;;;25.09;50.21;101393.36;1684846;85;20201;-81
2021/09/14 06:23:45;;;;;;;;;;;;;;;25.13;50.10;101392.36;1684834;85;20180;-80
2021/09/14 06:26:21;;;;;;;;;;;;;;;25.21;49.47;101391.48;1684997;84;20248;-82
2021/09/14 06:28:52;;;;;;;;;;;;;;;25.31;49.84;101385.42;1684937;84;20288;-79
2021/09/14 06:31:24;;;;;;;;;;;;;;;25.44;49.73;101394.91;1684870;85;20264;-85
2021/09/14 06:33:57;;;;;;;;;;;;;;;25.53;48.61;101395.72;1684933;85;20272;-74
2021/09/14 06:36:29;;;;;;;;;;;;;;;25.59;47.81;101388.66;1684954;85;20193;-75
2021/09/14 06:39:00;;;;;;;;;;;;;;;25.61;48.50;101398.48;1686129;85;20252;-76
2021/09/14 06:41:32;;;;;;;;;;;;;;;25.71;48.26;101395.83;1688304;85;20260;-80
2021/09/14 06:44:06;;;;;;;;;;;;;;;25.77;47.89;101391.60;1686315;85;20252;-81
2021/09/14 06:46:51;;;;;;;;;;;;;;;25.82;47.90;101399.37;1684378;85;20192;-80
2021/09/14 06:49:26;;;;;;;;;;;;;;;25.88;47.94;101396.56;1684799;85;20614;-79
2021/09/14 06:51:57;;;;;;;;;;;;;;;26.01;48.31;101396.06;1604231;89;20318;-81
2021/09/14 06:54:29;;;;;;;;;;;;;;;26.12;47.92;101398.17;1604428;88;20227;-77
2021/09/14 06:57:01;;;;;;;;;;;;;;;26.18;47.84;101398.79;1604268;89;20246;-77
2021/09/14 06:59:33;;;;;;;;;;;;;;;26.24;47.94;101394.55;1604456;89;20196;-81
2021/09/14 07:02:05;;;;;;;;;;;;;;;26.28;47.10;101399.19;1605198;88;20269;-81
2021/09/14 07:04:39;;;;;;;;;;;;;;;26.27;47.08;101398.14;1608613;89;20275;-81
2021/09/14 07:07:11;;;;;;;;;;;;;;;26.23;47.15;101404.28;1608952;88;20198;-78
2021/09/14 07:09:42;;;;;;;;;;;;;;;26.17;47.86;101409.37;1609060;88;20239;-80
2021/09/14 07:12:15;;;;;;;;;;;;;;;26.19;48.12;101407.57;1608865;89;20215;-81
2021/09/14 07:14:47;;;;;;;;;;;;;;;26.21;48.73;101401.77;1608863;89;20243;-83
2021/09/14 07:17:21;;;;;;;;;;;;;;;26.26;48.54;101405.84;1662015;85;20735;-77
2021/09/14 07:19:52;;;;;;;;;;;;;;;26.30;48.27;101408.83;1690117;85;20260;-82
2021/09/14 07:22:25;;;;;;;;;;;;;;;26.30;48.21;101411.09;1689915;85;20229;-79
2021/09/14 07:24:57;;;;;;;;;;;;;;;26.33;48.15;101400.41;1694325;83;20286;-82
2021/09/14 07:27:29;;;;;;;;;;;;;;;26.38;47.76;101406.48;1721736;83;20215;-80
2021/09/14 07:30:01;;;;;;;;;;;;;;;26.41;48.04;101407.22;1721848;83;20185;-79
2021/09/14 07:32:32;;;;;;;;;;;;;;;26.44;48.07;101407.36;1721979;83;20360;-80
2021/09/14 07:35:05;;;;;;;;;;;;;;;26.49;48.71;101400.59;1759570;81;20565;-80
2021/09/14 07:37:38;;;;;;;;;;;;;;;26.58;48.29;101402.83;1778095;80;20220;-80
2021/09/14 07:40:11;;;;;;;;;;;;;;;26.63;47.34;101404.04;1778092;81;20727;-78
2021/09/14 07:42:43;;;;;;;;;;;;;;;26.62;47.33;101406.05;1778140;80;20568;-79
2021/09/14 07:45:15;;;;;;;;;;;;;;;26.65;47.04;101404.52;1778022;80;20259;-79
2021/09/14 07:47:47;;;;;;;;;;;;;;;26.67;47.32;101397.86;1777971;81;20199;-79
2021/09/14 07:50:21;;;;;;;;;;;;;;;26.68;47.08;101403.22;1777924;81;20179;-79
2021/09/14 07:52:52;;;;;;;;;;;;;;;26.68;46.83;101401.79;1778066;81;20592;-78
2021/09/14 07:55:24;;;;;;;;;;;;;;;26.66;46.59;101406.17;1778023;81;20255;-80
2021/09/14 07:57:56;;;;;;;;;;;;;;;26.65;46.30;101401.66;1778235;81;20240;-82
2021/09/14 08:00:28;;;;;;;;;;;;;;;26.60;45.80;101401.30;1778220;80;20236;-80
2021/09/14 08:03:00;;;;;;;;;;;;;;;26.54;45.99;101400.42;1778144;81;20188;-81
2021/09/14 08:05:32;;;;;;;;;;;;;;;26.52;46.27;101399.31;1777940;81;20243;-77
2021/09/14 08:08:06;;;;;;;;;;;;;;;26.51;46.34;101394.80;1778243;81;20204;-78
2021/09/14 08:10:39;;;;;;;;;;;;;;;26.51;46.53;101394.80;1778146;81;20552;-78
2021/09/14 08:13:12;;;;;;;;;;;;;;;26.50;46.59;101398.83;1773893;81;20187;-79
2021/09/14 08:15:44;;;;;;;;;;;;;;;26.49;46.53;101392.05;1778101;80;20180;-80
2021/09/14 08:18:16;;;;;;;;;;;;;;;26.45;46.63;101393.34;1778023;80;20211;-80
2021/09/14 08:20:54;;;;;;;;;;;;;;;26.47;47.24;101395.86;1778039;81;20269;-82
2021/09/14 08:23:27;;;;;;;;;;;;;;;26.48;46.81;101389.81;1777870;80;20557;-79
2021/09/14 08:25:59;;;;;;;;;;;;;;;26.50;46.95;101388.86;1778137;81;20172;-79
2021/09/14 08:28:31;;;;;;;;;;;;;;;26.54;47.09;101389.87;1778148;81;20520;-82
2021/09/14 08:31:08;;;;;;;;;;;;;;;26.59;46.58;101389.63;1774016;81;20196;-79
2021/09/14 08:33:40;;;;;;;;;;;;;;;26.62;46.45;101392.37;1778014;81;20251;-81
2021/09/14 08:36:12;;;;;;;;;;;;;;;26.59;46.81;101393.09;1753056;80;20648;-80
2021/09/14 08:38:44;;;;;;;;;;;;;;;26.62;46.72;101390.36;1733457;83;20300;-79
2021/09/14 08:41:16;;;;;;;;;;;;;;;26.66;46.71;101396.19;1733492;83;20348;-80
2021/09/14 08:43:49;;;;;;;;;;;;;;;26.71;46.24;101390.28;1733314;83;20217;-78
2021/09/14 08:46:22;;;;;;;;;;;;;;;26.75;45.87;101401.23;1733442;81;20261;-79
2021/09/14 08:48:54;;;;;;;;;;;;;;;26.77;45.19;101404.55;1733528;83;20273;-78
2021/09/14 08:51:25;;;;;;;;;;;;;;;26.76;45.86;101399.43;1733445;83;20213;-77
2021/09/14 08:53:57;;;;;;;;;;;;;;;26.78;45.84;101391.96;1733492;83;20305;-77
2021/09/14 08:56:28;;;;;;;;;;;;;;;26.83;45.97;101393.16;1733395;83;20246;-76
2021/09/14 08:59:01;;;;;;;;;;;;;;;26.88;45.57;101390.91;1733239;83;20193;-77
2021/09/14 09:01:34;;;;;;;;;;;;;;;26.94;45.32;101389.50;1733384;83;20253;-79
2021/09/14 09:04:08;;;;;;;;;;;;;;;26.98;44.88;101385.58;1715621;83;20216;-77
2021/09/14 09:06:40;;;;;;;;;;;;;;;27.01;44.79;101388.32;1733415;81;20197;-77
2021/09/14 09:09:14;;;;;;;;;;;;;;;27.03;44.96;101389.41;1733263;83;20189;-78
2021/09/14 09:11:58;;;;;;;;;;;;;;;27.04;45.47;101384.17;1733451;83;20222;-79
2021/09/14 09:14:41;;;;;;;;;;;;;;;27.08;45.63;101387.17;1733469;83;20353;-78
2021/09/14 09:17:17;;;;;;;;;;;;;;;27.13;45.16;101385.48;1710858;84;20259;-78
2021/09/14 09:20:00;;;;;;;;;;;;;;;27.19;44.59;101384.72;1717359;82;20259;-77
2021/09/14 09:22:32;;;;;;;;;;;;;;;27.19;44.85;101381.25;1713192;82;20276;-77
2021/09/14 09:25:05;;;;;;;;;;;;;;;27.19;44.56;101378.40;1692359;83;20649;-75
2021/09/14 09:27:38;;;;;;;;;;;;;;;27.21;44.39;101378.05;1762097;81;20220;-80
2021/09/14 09:30:10;;;;;;;;;;;;;;;27.25;44.58;101381.88;1778155;81;20191;-80
2021/09/14 09:32:49;;;;;;;;;;;;;;;27.28;44.34;101379.72;1778189;81;20226;-77
2021/09/14 09:35:29;;;;;;;;;;;;;;;27.31;44.42;101377.59;1778202;79;20257;-79
2021/09/14 09:38:00;;;;;;;;;;;;;;;27.37;43.39;101374.74;1748436;81;20299;-80
2021/09/14 09:40:42;;;;;;;;;;;;;;;27.38;43.62;101370.08;1778021;81;20187;-75
2021/09/14 09:43:13;;;;;;;;;;;;;;;27.38;43.09;101373.78;1778302;81;20211;-78
2021/09/14 09:45:46;;;;;;;;;;;;;;;27.38;43.49;101370.70;1778121;81;20187;-77
2021/09/14 09:48:18;;;;;;;;;;;;;;;27.39;43.65;101371.16;1730798;81;20211;-77
2021/09/14 09:50:50;;;;;;;;;;;;;;;27.40;43.73;101369.97;1770672;81;20270;-77
2021/09/14 09:53:22;;;;;;;;;;;;;;;27.43;43.94;101364.76;1755203;80;20564;-73
2021/09/14 09:55:53;;;;;;;;;;;;;;;27.46;44.18;101363.44;1775541;81;20183;-76
2021/09/14 09:58:25;;;;;;;;;;;;;;;27.49;43.47;101366.41;1778156;81;20214;-78
2021/09/14 10:01:03;;;;;;;;;;;;;;;27.52;43.59;101362.83;1767499;81;20284;-79
2021/09/14 10:03:38;;;;;;;;;;;;;;;27.54;43.32;101363.33;1716865;80;20188;-77
2021/09/14 10:06:11;;;;;;;;;;;;;;;27.56;43.49;101355.80;1713351;82;20645;-78
2021/09/14 10:08:49;;;;;;;;;;;;;;;27.57;43.41;101365.45;1747023;82;20254;-77
2021/09/14 10:11:29;;;;;;;;;;;;;;;27.59;43.56;101366.53;1744094;82;20239;-77
2021/09/14 10:14:13;;;;;;;;;;;;;;;27.62;43.87;101365.21;1712639;82;20318;-77
2021/09/14 10:16:49;;;;;;;;;;;;;;;27.64;43.02;101364.25;1743043;82;20361;-77
2021/09/14 10:19:29;;;;;;;;;;;;;;;27.66;42.39;101363.89;1741145;82;20246;-77
2021/09/14 10:22:08;;;;;;;;;;;;;;;27.69;42.49;101363.20;1733956;81;20250;-76
2021/09/14 10:24:45;;;;;;;;;;;;;;;27.66;42.09;101359.03;1750983;81;20883;-75
2021/09/14 10:27:17;;;;;;;;;;;;;;;27.63;42.62;101354.02;1748062;81;20668;-77
2021/09/14 10:30:00;;;;;;;;;;;;;;;27.66;42.84;101355.33;1741957;82;20549;-78
2021/09/14 10:32:41;;;;;;;;;;;;;;;27.70;42.28;101355.67;1741934;82;20243;-75
2021/09/14 10:35:13;;;;;;;;;;;;;;;27.72;41.76;101356.16;1730516;81;20251;-74
2021/09/14 10:37:45;;;;;;;;;;;;;;;27.70;41.86;101355.67;1734675;81;20290;-76
2021/09/14 10:40:17;;;;;;;;;;;;;;;27.68;41.39;101348.07;1737652;82;20260;-74
2021/09/14 10:42:50;;;;;;;;;;;;;;;27.68;41.88;101350.93;1737895;81;21150;-73
2021/09/14 10:45:22;;;;;;;;;;;;;;;27.69;41.94;101348.92;1737365;82;20667;-73
2021/09/14 10:47:55;;;;;;;;;;;;;;;27.71;42.20;101347.34;1701766;82;20171;-75
2021/09/14 10:50:28;;;;;;;;;;;;;;;27.74;42.58;101345.79;1742118;82;20593;-75
2021/09/14 10:53:01;;;;;;;;;;;;;;;27.76;43.05;101343.42;1741969;82;20247;-76
2021/09/14 10:55:33;;;;;;;;;;;;;;;27.79;43.08;101338.44;1741858;82;21154;-75
2021/09/14 10:58:04;;;;;;;;;;;;;;;27.80;42.68;101342.95;1742175;82;20244;-76
2021/09/14 11:00:36;;;;;;;;;;;;;;;27.77;42.56;101337.36;1742260;82;20227;-76
2021/09/14 11:03:07;;;;;;;;;;;;;;;27.76;42.47;101337.72;1742109;82;20632;-75
2021/09/14 11:05:39;;;;;;;;;;;;;;;27.75;42.48;101328.30;1738739;82;20260;-74
2021/09/14 11:08:11;;;;;;;;;;;;;;;27.75;42.68;101327.48;1741967;82;20605;-76
2021/09/14 11:10:45;;;;;;;;;;;;;;;27.75;43.15;101332.59;1737610;82;20273;-75
2021/09/14 11:13:22;;;;;;;;;;;;;;;27.79;42.20;101331.30;1733570;82;20232;-76
2021/09/14 11:16:03;;;;;;;;;;;;;;;27.77;42.32;101324.52;1737870;82;20270;-76
2021/09/14 11:18:35;;;;;;;;;;;;;;;27.73;42.07;101317.84;1736804;82;20210;-75
2021/09/14 11:21:09;;;;;;;;;;;;;;;27.70;42.48;101327.12;1748825;81;20687;-77
2021/09/14 11:23:44;;;;;;;;;;;;;;;27.70;42.55;101321.41;1755530;81;20216;-77
2021/09/14 11:26:18;;;;;;;;;;;;;;;27.71;42.43;101319.40;1762779;81;20257;-74
2021/09/14 11:28:57;;;;;;;;;;;;;;;27.71;42.71;101318.78;1744712;81;20291;-76
2021/09/14 11:31:31;;;;;;;;;;;;;;;27.74;42.50;101318.66;1742116;82;20372;-77
2021/09/14 11:34:05;;;;;;;;;;;;;;;27.75;42.35;101318.31;1742386;82;20295;-79
2021/09/14 11:36:37;;;;;;;;;;;;;;;27.75;41.41;101319.73;1742179;82;20231;-77
2021/09/14 11:39:08;;;;;;;;;;;;;;;27.74;41.52;101322.36;1742165;81;20734;-77
2021/09/14 11:41:40;;;;;;;;;;;;;;;27.74;40.67;101312.37;1742054;82;20624;-78
2021/09/14 11:44:12;;;;;;;;;;;;;;;27.72;40.32;101313.92;1742175;81;20186;-74
2021/09/14 11:46:48;;;;;;;;;;;;;;;27.69;40.25;101308.33;1700712;82;20190;-75
2021/09/14 11:49:27;;;;;;;;;;;;;;;27.67;40.96;101304.16;1734757;81;20597;-77
2021/09/14 11:52:04;;;;;;;;;;;;;;;27.67;41.07;101307.86;1752457;81;20215;-76
2021/09/14 11:54:37;;;;;;;;;;;;;;;27.66;41.22;101300.50;1739143;81;20652;-74
2021/09/14 11:57:19;;;;;;;;;;;;;;;27.66;41.65;101303.94;1741884;82;20259;-77
2021/09/14 11:59:54;;;;;;;;;;;;;;;27.64;41.58;101292.05;1740494;82;20287;-76
2021/09/14 12:02:26;;;;;;;;;;;;;;;27.61;41.59;101295.03;1741629;81;20208;-79
2021/09/14 12:05:00;;;;;;;;;;;;;;;27.58;41.84;101294.92;1741752;82;20582;-78
2021/09/14 12:07:32;;;;;;;;;;;;;;;27.57;41.93;101292.66;1741631;82;20362;-75
2021/09/14 12:10:05;;;;;;;;;;;;;;;27.56;42.03;101291.58;1743799;81;20299;-79
2021/09/14 12:12:38;;;;;;;;;;;;;;;27.55;41.98;101279.34;1755028;81;20200;-77
2021/09/14 12:15:12;;;;;;;;;;;;;;;27.54;41.65;101284.82;1735746;81;20221;-77
2021/09/14 12:17:44;;;;;;;;;;;;;;;27.51;41.63;101294.09;1737147;81;20308;-76
2021/09/14 12:20:16;;;;;;;;;;;;;;;27.48;41.66;101289.11;1743724;81;20260;-74
2021/09/14 12:22:47;;;;;;;;;;;;;;;27.45;41.97;101286.96;1736509;81;20757;-75
2021/09/14 12:25:19;;;;;;;;;;;;;;;27.39;41.86;101285.55;1732552;81;20720;-76
2021/09/14 12:27:51;;;;;;;;;;;;;;;27.36;42.04;101285.43;1702502;83;20379;-80
2021/09/14 12:30:25;;;;;;;;;;;;;;;27.33;42.48;101292.45;1662795;86;20308;-76
2021/09/14 12:32:57;;;;;;;;;;;;;;;27.31;42.78;101295.66;1685539;84;20609;-75
2021/09/14 12:35:30;;;;;;;;;;;;;;;27.28;42.47;101295.77;1680012;84;20284;-72
2021/09/14 12:38:01;;;;;;;;;;;;;;;27.29;42.42;101299.47;1662329;85;20195;-79
2021/09/14 12:40:33;;;;;;;;;;;;;;;27.29;42.44;101292.34;1700728;84;20308;-84
2021/09/14 12:43:05;;;;;;;;;;;;;;;27.26;42.43;101293.04;1662313;86;20271;-76
2021/09/14 12:45:37;;;;;;;;;;;;;;;27.26;42.56;101295.08;1673245;84;20779;-78
2021/09/14 12:48:09;;;;;;;;;;;;;;;27.23;42.99;101300.90;1678089;84;21102;-78
2021/09/14 12:50:41;;;;;;;;;;;;;;;27.21;43.35;101306.72;1678137;84;20264;-79
2021/09/14 12:53:13;;;;;;;;;;;;;;;27.16;43.41;101314.09;1674473;84;20274;-78
2021/09/14 12:55:46;;;;;;;;;;;;;;;27.14;43.32;101332.98;1674898;84;20340;-78
2021/09/14 12:58:20;;;;;;;;;;;;;;;27.13;44.03;101331.90;1665102;85;20270;-78
2021/09/14 13:00:51;;;;;;;;;;;;;;;27.07;45.39;101331.28;1672406;85;20251;-76
2021/09/14 13:03:25;;;;;;;;;;;;;;;26.96;46.50;101331.54;1680969;85;20310;-77
2021/09/14 13:05:59;;;;;;;;;;;;;;;26.84;47.45;101334.37;1678375;85;20223;-78
2021/09/14 13:08:30;;;;;;;;;;;;;;;26.69;48.63;101339.92;1678212;85;20292;-78
2021/09/14 13:11:03;;;;;;;;;;;;;;;26.50;49.20;101335.29;1660905;85;20195;-79
2021/09/14 13:16:47;;;;;;;;;;;;;;;26.29;49.71;101353.03;1676729;85;20261;-79
2021/09/14 13:19:20;;;;;;;;;;;;;;;26.16;50.04;101354.98;1665112;86;20231;-76
2021/09/14 13:21:53;;;;;;;;;;;;;;;26.07;50.26;101355.66;1663727;86;20220;-81
2021/09/14 13:24:25;;;;;;;;;;;;;;;26.00;50.65;101358.23;1660844;86;20198;-75
2021/09/14 13:27:00;;;;;;;;;;;;;;;25.93;51.11;101361.39;1659604;86;20202;-77
2021/09/14 13:29:32;;;;;;;;;;;;;;;25.87;51.22;101368.44;1656549;86;20231;-79
2021/09/14 13:32:09;;;;;;;;;;;;;;;25.83;51.47;101366.88;1664590;86;20593;-79
2021/09/14 13:34:40;;;;;;;;;;;;;;;25.79;51.79;101376.45;1665308;86;20224;-79
2021/09/14 13:37:14;;;;;;;;;;;;;;;25.75;52.26;101359.81;1662501;86;20556;-80
2021/09/14 13:39:47;;;;;;;;;;;;;;;25.72;53.23;101361.94;1660284;85;20186;-74
2021/09/14 13:42:25;;;;;;;;;;;;;;;25.66;54.53;101366.17;1650333;86;20695;-74
2021/09/14 13:47:31;;;;;;;;;;;;;;;25.54;57.69;101368.31;1665450;86;20254;-78
2021/09/14 13:50:02;;;;;;;;;;;;;;;25.42;58.47;101367.41;1665637;86;20265;-78
2021/09/14 13:52:34;;;;;;;;;;;;;;;25.33;59.14;101365.18;1662154;86;20214;-78
2021/09/14 13:55:13;;;;;;;;;;;;;;;25.23;59.12;101365.55;1663499;84;20290;-77
2021/09/14 13:57:39;;;;;;;;;;;;;;;25.17;58.84;101366.92;1662449;86;20307;-77
2021/09/14 14:00:16;;;;;;;;;;;;;;;25.14;59.12;101357.05;1654395;85;20217;-75
2021/09/14 14:02:48;;;;;;;;;;;;;;;25.14;59.57;101363.32;1649300;86;20193;-78
2021/09/14 14:05:21;;;;;;;;;;;;;;;25.14;59.05;101358.48;1664690;85;20280;-76
2021/09/14 14:07:55;;;;;;;;;;;;;;;25.17;59.06;101362.66;1662701;85;20226;-77
2021/09/14 14:10:29;;;;;;;;;;;;;;;25.21;59.58;101360.77;1658704;86;20221;-77
2021/09/14 14:13:01;;;;;;;;;;;;;;;25.24;59.92;101350.19;1661968;86;20562;-76
2021/09/14 14:15:34;;;;;;;;;;;;;;;25.29;59.76;101349.99;1665801;85;20609;-75
2021/09/14 14:18:06;;;;;;;;;;;;;;;25.32;60.13;101348.72;1662998;85;20254;-77
2021/09/14 14:20:38;;;;;;;;;;;;;;;25.34;60.04;101349.20;1674905;85;20243;-76
2021/09/14 14:23:10;;;;;;;;;;;;;;;25.37;60.25;101350.53;1673685;85;20297;-80
2021/09/14 14:25:43;;;;;;;;;;;;;;;25.38;59.67;101350.77;1672073;85;20516;-80
2021/09/14 14:28:17;;;;;;;;;;;;;;;25.37;58.94;101352.77;1663683;86;20183;-79
2021/09/14 14:30:49;;;;;;;;;;;;;;;25.36;58.61;101362.48;1660459;86;20230;-77
2021/09/14 14:33:24;;;;;;;;;;;;;;;25.34;58.28;101357.73;1667019;86;20250;-81
2021/09/14 14:35:56;;;;;;;;;;;;;;;25.33;58.52;101364.60;1676733;85;20575;-78
2021/09/14 14:38:37;;;;;;;;;;;;;;;25.31;58.54;101352.71;1626730;86;20213;-82
2021/09/14 14:41:09;;;;;;;;;;;;;;;25.29;58.61;101355.69;1624095;87;20201;-79
2021/09/14 14:43:41;;;;;;;;;;;;;;;25.27;58.79;101358.02;1626861;87;20582;-77
2021/09/14 14:46:13;;;;;;;;;;;;;;;25.23;58.66;101360.68;1628107;87;20201;-75
2021/09/14 14:48:45;;;;;;;;;;;;;;;25.20;58.35;101355.69;1612892;87;20202;-78
2021/09/14 14:51:17;;;;;;;;;;;;;;;25.17;57.93;101349.25;1668056;84;20198;-75
2021/09/14 14:53:50;;;;;;;;;;;;;;;25.13;57.61;101356.82;1685497;85;20191;-79
2021/09/14 14:56:23;;;;;;;;;;;;;;;25.09;57.52;101354.97;1671977;85;20179;-78
2021/09/14 14:58:54;;;;;;;;;;;;;;;25.07;57.71;101352.50;1684825;85;20198;-74
2021/09/14 15:01:26;;;;;;;;;;;;;;;25.06;58.02;101355.67;1674259;84;20557;-75
2021/09/14 15:03:58;;;;;;;;;;;;;;;25.06;57.63;101354.25;1668850;84;20189;-75
2021/09/14 15:06:31;;;;;;;;;;;;;;;25.06;57.02;101354.25;1671033;85;20571;-76
2021/09/14 15:09:05;;;;;;;;;;;;;;;25.06;57.08;101357.09;1685269;85;20610;-76
2021/09/14 15:11:39;;;;;;;;;;;;;;;25.06;57.46;101359.33;1622621;86;20582;-73
2021/09/14 15:14:11;;;;;;;;;;;;;;;25.09;58.67;101362.93;1637105;86;20319;-76
2021/09/14 15:16:43;;;;;;;;;;;;;;;25.12;59.55;101364.27;1666109;85;20191;-78
2021/09/14 15:19:16;;;;;;;;;;;;;;;25.13;59.58;101364.50;1668801;85;20207;-76
2021/09/14 15:21:48;;;;;;;;;;;;;;;25.14;59.56;101370.43;1671436;84;20251;-75
2021/09/14 15:24:20;;;;;;;;;;;;;;;25.15;59.68;101372.94;1673389;86;20248;-73
2021/09/14 15:26:52;;;;;;;;;;;;;;;25.15;58.81;101379.20;1675178;86;20299;-74
2021/09/14 15:29:24;;;;;;;;;;;;;;;25.14;58.00;101386.92;1675968;86;20199;-74
2021/09/14 15:31:55;;;;;;;;;;;;;;;25.15;57.54;101385.73;1671901;84;20532;-76
2021/09/14 15:34:27;;;;;;;;;;;;;;;25.14;57.14;101386.06;1671935;84;20191;-75
2021/09/14 15:37:00;;;;;;;;;;;;;;;25.13;57.13;101390.09;1673293;86;20190;-77
2021/09/14 15:39:34;;;;;;;;;;;;;;;25.11;57.25;101391.03;1673879;86;20318;-76
2021/09/14 15:42:07;;;;;;;;;;;;;;;25.09;57.50;101397.62;1672858;85;20302;-74
2021/09/14 15:44:41;;;;;;;;;;;;;;;25.06;57.54;101401.98;1675074;86;20267;-77